2R3 weather

Island Lake Seaplane Base
Kenai, Alaska, United States

Public forecast

Using degrees Fahrenheit for public forecast. Weather courtesy of forecast.io.

Closest aviation weather report (METAR) to Island Lake Seaplane Base

Closest report is Kenai Municipal Airport, 8.1 nm (15.0 km) SSE. Retrieved 2019/11/21 21:53 UTC (47 minutes ago):

PAEN 212153Z 34003KT 10SM CLR 03/01 A2896

Closest aviation forecast (TAF) to Island Lake Seaplane Base

Closest forecast is Kenai Municipal Airport, 8.1 nm (15.0 km) SSE. Retrieved 2019/11/21 18:48 UTC (4 hours ago):

TAF PAEN 211746Z 2118/2218 14007KT P6SM BKN030 OVC080 FM220300 08007KT 2SM -RA BR SCT015 OVC030 FM220600 12008KT 4SM -RA BR OVC015 FM221000 18012KT P6SM VCSH SCT015 BKN025